Aviation Digital Data Service (ADDS)

Output produced by METARs form (0747 UTC 23 April 2018)
found at http://www.aviationweather.gov/adds/metars/
 
NSFA 230700Z 13003KT 9999 SCT022 BKN120 25/24 Q1010
NSFA 230500Z 13006KT 9999 FEW022 SCT050 BKN120 27/24 Q1009
NSFA 230400Z VRB03KT 9999 FEW022 SCT045 BKN120 29/25 Q1008
NSFA 230300Z 09004KT 9999 FEW022 SCT045 BKN120 29/26 Q1008
NSFA 230200Z 09007KT 9999 FEW022 SCT045 OVC120 29/25 Q1008
NSFA 222300Z VRB03KT 9999 -DZ FEW024 BKN280 29/25 Q1010
NSFA 222200Z 30005KT 9999 FEW030 29/24 Q1011 NOSIG
NSFA 222000Z 00000KT 9999 FEW030 28/24 Q1011 NOSIG
NSFA 221700Z 13004KT 9999 FEW030 24/23 Q1010 NOSIG
NSFA 221600Z 00000KT 9999 FEW030 24/23 Q1009 NOSIG
NSFA 221500Z 14004KT 9999 FEW030 24/23 Q1009 NOSIG
NSFA 221400Z 17003KT 9999 FEW028 24/22 Q1009 NOSIG
NSFA 221100Z 18002KT 9999 FEW023 24/23 Q1011 NOSIG
NSFA 221000Z 11002KT 9999 FEW023 24/23 Q1011 NOSIG
NSFA 220900Z 15003KT 9999 FEW023 25/24 Q1012 NOSIG